Ash Ridge, Ohio
Current Conditions -  °F | °C
As of 8:15 AM on Friday 28 Nov 2014 (Local Time) from KFGX Reporting Station
Broken Clouds Broken Clouds  
Wind Chill: 26°   Ceiling: 10000
Heat Index: 26°   Visibility: 10mi
Dew Point: 21°   Wind: 3mph
Humidity: 84%   Direction: 230°SW
Pressure: 30.42"   Gusts: NA
Location:  38.8698°N, 83.9081°W
Report Text: KFGX 281315Z AUTO 23003KT 10SM SCT040 BKN100 M04/M06 A3042 RMK AO2 T10361060
Loading
Personal Weather Stations






























Interactive Weather Map New forecast layout! Learn more

10-Day Weather Forecast

Advertisements
Track Severe Weather on mobile